createdAt,value
2018-12-30T00:00:15.405Z,1015.09
2018-12-30T00:01:15.417Z,1015.13
2018-12-30T00:02:15.387Z,1015.14
2018-12-30T00:03:15.380Z,1015.13
2018-12-30T00:04:15.362Z,1015.05
2018-12-30T00:05:15.382Z,1015.15
2018-12-30T00:06:15.351Z,1015.13
2018-12-30T00:07:15.320Z,1015.16
2018-12-30T00:08:15.315Z,1015.11
2018-12-30T00:09:15.297Z,1015.18
2018-12-30T00:10:15.285Z,1015.18
2018-12-30T00:11:15.297Z,1015.18
2018-12-30T00:12:15.262Z,1015.25
2018-12-30T00:13:15.250Z,1015.23
2018-12-30T00:14:15.259Z,1015.25
2018-12-30T00:15:15.229Z,1014.99
2018-12-30T00:16:15.245Z,1015.15
2018-12-30T00:17:15.204Z,1015.18
2018-12-30T00:18:15.196Z,1015.13
2018-12-30T00:19:15.187Z,1015.23
2018-12-30T00:20:15.170Z,1015.20
2018-12-30T00:21:15.156Z,1015.24
2018-12-30T00:22:15.178Z,1015.25
2018-12-30T00:23:15.154Z,1015.30
2018-12-30T00:24:15.124Z,1015.22
2018-12-30T00:25:15.112Z,1015.25
2018-12-30T00:26:15.105Z,1015.40
2018-12-30T00:27:15.111Z,1015.33
2018-12-30T00:28:15.107Z,1015.45
2018-12-30T00:29:15.069Z,1015.29
2018-12-30T00:30:15.052Z,1015.41
2018-12-30T00:31:15.056Z,1015.47
2018-12-30T00:32:15.128Z,1015.41
2018-12-30T00:33:15.027Z,1015.48
2018-12-30T00:34:15.009Z,1015.55
2018-12-30T00:35:14.999Z,1015.46
2018-12-30T00:36:14.995Z,1015.59
2018-12-30T00:37:15.002Z,1015.64
2018-12-30T00:38:14.962Z,1015.62
2018-12-30T00:39:14.995Z,1015.76
2018-12-30T00:40:14.936Z,1015.80
2018-12-30T00:41:14.940Z,1015.75
2018-12-30T00:42:14.948Z,1015.76
2018-12-30T00:43:14.908Z,1015.79
2018-12-30T00:44:14.896Z,1015.85
2018-12-30T00:45:14.888Z,1015.83
2018-12-30T00:46:14.871Z,1015.92
2018-12-30T00:47:14.872Z,1015.78
2018-12-30T00:48:14.878Z,1015.75
2018-12-30T00:49:14.838Z,1015.75
2018-12-30T00:50:14.821Z,1015.70
2018-12-30T00:51:17.103Z,1015.83
2018-12-30T00:52:14.838Z,1015.76
2018-12-30T00:53:14.813Z,1015.88
2018-12-30T00:54:14.782Z,1015.85
2018-12-30T00:55:14.764Z,1015.82
2018-12-30T00:56:14.756Z,1015.84
2018-12-30T00:57:14.744Z,1015.89
2018-12-30T00:58:14.762Z,1015.90
2018-12-30T00:59:14.723Z,1015.89
2018-12-30T01:00:14.714Z,1015.86
2018-12-30T01:01:14.700Z,1015.85
2018-12-30T14:16:58.456Z,1020.19
2018-12-30T14:17:58.456Z,1020.27
2018-12-30T14:18:58.405Z,1020.29
2018-12-30T14:19:58.394Z,1020.31
2018-12-30T14:20:58.382Z,1020.26
2018-12-30T14:21:58.370Z,1020.22
2018-12-30T14:22:58.357Z,1020.19
2018-12-30T14:23:58.368Z,1020.27
2018-12-30T14:24:58.334Z,1020.24
2018-12-30T14:25:58.324Z,1020.32
2018-12-30T14:27:00.037Z,1020.25
2018-12-30T14:27:58.320Z,1020.17
2018-12-30T14:28:58.287Z,1020.16
2018-12-30T14:29:58.277Z,1020.10
2018-12-30T14:30:58.264Z,1020.10
2018-12-30T14:31:58.253Z,1020.10
2018-12-30T14:32:58.264Z,1020.05
2018-12-30T14:33:58.231Z,1020.11
2018-12-30T14:34:58.218Z,1020.07
2018-12-30T14:35:58.207Z,1019.98
2018-12-30T14:36:58.195Z,1020.01
2018-12-30T14:37:58.182Z,1020.01
2018-12-30T14:38:58.189Z,1019.93
2018-12-30T14:39:58.160Z,1020.00
2018-12-30T14:40:58.150Z,1019.93
2018-12-30T14:41:58.135Z,1019.95
2018-12-30T14:42:58.124Z,1019.94
2018-12-30T14:43:58.132Z,1020.00
2018-12-30T14:44:58.100Z,1019.94
2018-12-30T14:45:58.091Z,1019.97
2018-12-30T14:46:58.076Z,1020.04
2018-12-30T14:47:58.068Z,1020.05
2018-12-30T14:48:58.078Z,1020.05
2018-12-30T14:49:58.042Z,1020.04
2018-12-30T14:50:58.031Z,1020.05
2018-12-30T14:51:58.021Z,1020.09
2018-12-30T14:52:58.006Z,1020.00
2018-12-30T14:53:57.995Z,1020.03
2018-12-30T14:55:03.560Z,1019.98
2018-12-30T14:55:58.971Z,1019.92
2018-12-30T14:56:57.961Z,1019.98
2018-12-30T14:57:57.952Z,1019.92
2018-12-30T14:58:57.936Z,1020.00
2018-12-30T14:59:57.948Z,1020.05
2018-12-30T15:00:57.912Z,1020.10
2018-12-30T15:01:57.901Z,1020.07
2018-12-30T15:02:57.889Z,1020.05
2018-12-30T15:03:57.877Z,1020.13
2018-12-30T15:04:57.867Z,1020.09
2018-12-30T15:05:57.872Z,1020.12
2018-12-30T15:06:57.845Z,1020.15
2018-12-30T15:07:57.832Z,1020.11
2018-12-30T15:08:57.819Z,1020.17
2018-12-30T15:09:57.807Z,1020.18
2018-12-30T15:10:57.815Z,1020.20
2018-12-30T15:11:57.787Z,1020.14
2018-12-30T15:12:57.776Z,1020.19
2018-12-30T15:13:57.761Z,1020.20
2018-12-30T15:14:57.749Z,1020.24
2018-12-30T15:15:57.756Z,1020.20
2018-12-30T15:16:59.450Z,1020.21
2018-12-30T15:17:57.714Z,1020.20
2018-12-30T15:18:57.703Z,1020.23
2018-12-30T15:19:57.691Z,1020.18
2018-12-30T15:20:57.702Z,1020.26
2018-12-30T15:21:57.669Z,1020.23
2018-12-30T15:22:57.656Z,1020.13
2018-12-30T15:23:57.644Z,1020.11
2018-12-30T15:24:57.632Z,1020.06
2018-12-30T15:25:57.622Z,1020.07
2018-12-30T15:26:57.628Z,1020.07
2018-12-30T15:27:57.598Z,1019.97
2018-12-30T15:28:57.586Z,1019.97
2018-12-30T15:29:57.575Z,1020.00
2018-12-30T15:30:57.563Z,1019.93
2018-12-30T15:31:57.573Z,1019.95
2018-12-30T15:32:57.542Z,1019.96
2018-12-30T15:33:57.527Z,1020.00
2018-12-30T15:34:57.515Z,1019.99
2018-12-30T15:35:57.525Z,1019.98
2018-12-30T15:36:57.494Z,1020.04
2018-12-30T15:37:57.483Z,1020.03
2018-12-30T15:38:57.472Z,1020.02
2018-12-30T15:39:57.459Z,1020.02
2018-12-30T15:40:57.465Z,1019.99
2018-12-30T15:41:57.436Z,1020.02
2018-12-30T15:42:57.425Z,1019.99
2018-12-30T15:43:57.413Z,1020.05
2018-12-30T15:44:57.401Z,1020.00
2018-12-30T15:45:57.408Z,1020.01
2018-12-30T15:46:57.378Z,1019.97
2018-12-30T15:47:57.367Z,1019.96
2018-12-30T15:48:57.358Z,1019.97
2018-12-30T15:49:57.349Z,1019.94
2018-12-30T15:50:57.350Z,1019.95
2018-12-30T15:51:57.320Z,1019.92
2018-12-30T15:52:57.307Z,1019.90
2018-12-30T15:53:57.296Z,1019.86
2018-12-30T15:54:57.286Z,1019.85
2018-12-30T15:55:57.297Z,1019.83
2018-12-30T15:56:57.261Z,1019.85
2018-12-30T15:57:57.251Z,1019.77
2018-12-30T15:58:57.241Z,1019.73
2018-12-30T15:59:57.227Z,1019.77
2018-12-30T16:00:57.217Z,1019.65
2018-12-30T16:01:57.223Z,1019.66
2018-12-30T16:02:57.194Z,1019.68
2018-12-30T16:03:57.180Z,1019.64
2018-12-30T16:04:57.171Z,1019.61
2018-12-30T16:05:57.713Z,1019.66
2018-12-30T16:06:57.165Z,1019.66
2018-12-30T16:07:57.135Z,1019.66
2018-12-30T16:08:57.122Z,1019.66
2018-12-30T16:09:57.112Z,1019.61
2018-12-30T16:10:57.100Z,1019.58
2018-12-30T16:11:57.108Z,1019.55
2018-12-30T16:12:57.077Z,1019.59
2018-12-30T16:13:57.065Z,1019.58
2018-12-30T16:14:57.054Z,1019.54
2018-12-30T16:15:57.041Z,1019.49
2018-12-30T16:16:57.053Z,1019.45
2018-12-30T16:17:57.019Z,1019.51
2018-12-30T16:18:57.008Z,1019.46
2018-12-30T16:19:56.995Z,1019.45
2018-12-30T16:20:56.985Z,1019.44
2018-12-30T16:21:56.971Z,1019.39
2018-12-30T16:22:56.980Z,1019.36
2018-12-30T16:23:56.949Z,1019.29
2018-12-30T16:24:56.937Z,1019.30
2018-12-30T16:25:56.925Z,1019.34
2018-12-30T16:26:56.915Z,1019.35
2018-12-30T16:27:56.922Z,1019.41
2018-12-30T16:28:56.890Z,1019.46
2018-12-30T16:29:56.879Z,1019.52
2018-12-30T16:30:56.867Z,1019.51
2018-12-30T16:31:56.858Z,1019.51
2018-12-30T16:32:56.862Z,1019.52
2018-12-30T16:33:56.832Z,1019.52
2018-12-30T16:34:56.822Z,1019.54
2018-12-30T16:35:56.811Z,1019.51
2018-12-30T16:36:56.799Z,1019.53
2018-12-30T16:37:56.806Z,1019.57
2018-12-30T16:38:56.777Z,1019.51
2018-12-30T16:39:56.764Z,1019.50
2018-12-30T16:40:56.756Z,1019.59
2018-12-30T16:41:57.924Z,1019.56
2018-12-30T16:42:56.747Z,1019.56
2018-12-30T16:43:56.717Z,1019.57
2018-12-30T16:44:56.707Z,1019.57
2018-12-30T16:45:56.694Z,1019.66
2018-12-30T16:46:56.683Z,1019.62
2018-12-30T16:47:56.693Z,1019.63
2018-12-30T16:48:56.658Z,1019.65
2018-12-30T16:49:56.647Z,1019.66
2018-12-30T16:50:56.635Z,1019.67
2018-12-30T16:51:56.624Z,1019.63
2018-12-30T16:52:56.633Z,1019.65
2018-12-30T16:53:56.605Z,1019.69
2018-12-30T16:54:56.589Z,1019.70
2018-12-30T16:55:56.582Z,1019.68
2018-12-30T16:56:56.566Z,1019.68
2018-12-30T16:57:56.596Z,1019.66
2018-12-30T16:58:56.545Z,1019.69
2018-12-30T16:59:56.531Z,1019.70
2018-12-30T17:00:56.520Z,1019.74
2018-12-30T17:01:56.508Z,1019.69
2018-12-30T17:02:56.499Z,1019.57
2018-12-30T17:03:56.504Z,1019.64
2018-12-30T17:04:56.473Z,1019.72
2018-12-30T17:05:56.462Z,1019.69
2018-12-30T17:06:56.450Z,1019.68
2018-12-30T17:07:56.439Z,1019.70
2018-12-30T17:08:56.446Z,1019.62
2018-12-30T17:09:56.416Z,1019.65
2018-12-30T17:10:56.404Z,1019.71
2018-12-30T17:11:56.397Z,1019.64
2018-12-30T17:12:56.383Z,1019.70
2018-12-30T17:13:56.390Z,1019.61
2018-12-30T17:14:56.358Z,1019.63
2018-12-30T17:15:56.346Z,1019.66
2018-12-30T17:16:56.335Z,1019.56
2018-12-30T17:17:56.322Z,1019.57
2018-12-30T17:18:56.361Z,1019.56
2018-12-30T17:19:56.299Z,1019.56
2018-12-30T17:20:56.288Z,1019.58
2018-12-30T17:21:56.276Z,1019.51
2018-12-30T17:22:56.267Z,1019.55
2018-12-30T17:23:56.271Z,1019.54
2018-12-30T17:24:56.243Z,1019.59
2018-12-30T17:25:56.229Z,1019.57
2018-12-30T17:26:56.224Z,1019.53
2018-12-30T17:27:56.206Z,1019.51
2018-12-30T17:28:56.214Z,1019.46
2018-12-30T17:29:56.183Z,1019.43
2018-12-30T17:30:56.171Z,1019.41
2018-12-30T17:31:56.161Z,1019.43
2018-12-30T17:32:56.149Z,1019.45
2018-12-30T17:33:56.155Z,1019.42
2018-12-30T17:34:56.126Z,1019.45
2018-12-30T17:35:56.116Z,1019.42
2018-12-30T17:36:56.102Z,1019.38
2018-12-30T17:37:56.091Z,1019.39
2018-12-30T17:38:56.099Z,1019.37
2018-12-30T17:39:56.069Z,1019.32
2018-12-30T17:41:01.497Z,1019.25
2018-12-30T17:41:57.043Z,1019.27
2018-12-30T17:42:56.034Z,1019.23
2018-12-30T17:43:56.045Z,1019.20
2018-12-30T17:44:56.009Z,1019.31
2018-12-30T17:45:56.000Z,1019.25
2018-12-30T17:46:55.987Z,1019.27
2018-12-30T17:47:55.974Z,1019.27
2018-12-30T17:48:55.962Z,1019.28
2018-12-30T17:49:55.970Z,1019.26
2018-12-30T17:50:55.942Z,1019.31
2018-12-30T17:51:55.930Z,1019.32
2018-12-30T17:52:55.916Z,1019.28
2018-12-30T17:53:55.928Z,1019.34
2018-12-30T17:54:55.894Z,1019.31
2018-12-30T17:55:55.882Z,1019.28
2018-12-30T17:56:55.875Z,1019.32
2018-12-30T17:57:55.859Z,1019.31
2018-12-30T17:58:55.849Z,1019.27
2018-12-30T17:59:55.855Z,1019.27
2018-12-30T18:00:55.825Z,1019.26
2018-12-30T18:01:55.812Z,1019.30
2018-12-30T18:02:55.802Z,1019.29
2018-12-30T18:03:55.790Z,1019.34
2018-12-30T18:04:55.796Z,1019.34
2018-12-30T18:05:55.764Z,1019.34
2018-12-30T18:06:55.755Z,1019.36
2018-12-30T18:07:55.742Z,1019.31
2018-12-30T18:08:55.732Z,1019.35
2018-12-30T18:09:55.737Z,1019.32
2018-12-30T18:10:55.707Z,1019.31
2018-12-30T18:11:55.695Z,1019.27
2018-12-30T18:12:55.683Z,1019.19
2018-12-30T18:13:55.671Z,1019.21
2018-12-30T18:14:55.679Z,1019.23
2018-12-30T18:15:55.650Z,1019.26
2018-12-30T18:16:55.638Z,1019.29
2018-12-30T18:17:55.625Z,1019.32
2018-12-30T18:18:55.614Z,1019.34
2018-12-30T18:19:55.624Z,1019.32
2018-12-30T18:20:55.591Z,1019.32
2018-12-30T18:21:55.579Z,1019.32
2018-12-30T18:22:55.567Z,1019.33
2018-12-30T18:23:55.556Z,1019.34
2018-12-30T18:24:55.545Z,1019.38
2018-12-30T18:25:58.782Z,1019.35
2018-12-30T18:26:55.522Z,1019.44
2018-12-30T18:27:55.510Z,1019.46
2018-12-30T18:28:55.498Z,1019.47
2018-12-30T18:29:55.486Z,1019.49
2018-12-30T18:30:55.494Z,1019.53
2018-12-30T18:31:55.467Z,1019.54
2018-12-30T18:32:55.451Z,1019.60
2018-12-30T18:33:55.441Z,1019.60
2018-12-30T18:34:55.429Z,1019.62
2018-12-30T18:35:55.435Z,1019.62
2018-12-30T18:36:55.405Z,1019.62
2018-12-30T18:37:55.394Z,1019.56
2018-12-30T18:38:55.383Z,1019.56
2018-12-30T18:39:55.370Z,1019.54
2018-12-30T18:40:55.381Z,1019.55
2018-12-30T18:41:55.347Z,1019.50
2018-12-30T18:42:55.335Z,1019.50
2018-12-30T18:43:55.324Z,1019.54
2018-12-30T18:44:55.313Z,1019.50
2018-12-30T18:45:55.321Z,1019.48
2018-12-30T18:46:55.290Z,1019.47
2018-12-30T18:47:55.278Z,1019.46
2018-12-30T18:48:55.268Z,1019.47
2018-12-30T18:49:55.256Z,1019.48
2018-12-30T18:50:55.265Z,1019.51
2018-12-30T18:51:55.233Z,1019.51
2018-12-30T18:52:55.221Z,1019.52
2018-12-30T18:53:55.214Z,1019.52
2018-12-30T18:54:55.199Z,1019.54
2018-12-30T18:55:55.210Z,1019.58
2018-12-30T18:56:55.179Z,1019.52
2018-12-30T18:57:55.163Z,1019.51
2018-12-30T18:58:55.150Z,1019.57
2018-12-30T18:59:55.139Z,1019.54
2018-12-30T19:00:55.130Z,1019.50
2018-12-30T19:01:55.134Z,1019.59
2018-12-30T19:02:55.105Z,1019.54
2018-12-30T19:03:55.095Z,1019.58
2018-12-30T19:04:55.083Z,1019.51
2018-12-30T19:05:55.070Z,1019.54
2018-12-30T19:06:55.079Z,1019.52
2018-12-30T19:07:55.048Z,1019.47
2018-12-30T19:08:55.036Z,1019.46
2018-12-30T19:09:55.028Z,1019.44
2018-12-30T19:10:55.012Z,1019.44
2018-12-30T19:11:55.028Z,1019.45
2018-12-30T19:12:54.989Z,1019.44
2018-12-30T19:13:54.977Z,1019.44
2018-12-30T19:14:54.966Z,1019.47
2018-12-30T19:15:54.956Z,1019.48
2018-12-30T19:16:54.944Z,1019.42
2018-12-30T19:17:54.949Z,1019.41
2018-12-30T19:18:54.921Z,1019.43
2018-12-30T19:19:54.908Z,1019.40
2018-12-30T19:20:54.897Z,1019.36
2018-12-30T19:21:54.925Z,1019.33
2018-12-30T19:22:54.875Z,1019.32
2018-12-30T19:23:54.864Z,1019.36
2018-12-30T19:24:54.850Z,1019.38
2018-12-30T19:26:01.058Z,1019.34
2018-12-30T19:26:55.850Z,1019.34
2018-12-30T19:27:54.815Z,1019.38
2018-12-30T19:28:54.807Z,1019.30
2018-12-30T19:29:54.792Z,1019.30
2018-12-30T19:30:54.781Z,1019.23
2018-12-30T19:31:54.771Z,1019.24
2018-12-30T19:32:54.778Z,1019.24
2018-12-30T19:33:54.750Z,1019.26
2018-12-30T19:34:54.735Z,1019.27
2018-12-30T19:35:54.723Z,1019.26
2018-12-30T19:36:54.805Z,1019.32
2018-12-30T19:37:54.718Z,1019.37
2018-12-30T19:38:54.694Z,1019.34
2018-12-30T19:39:54.677Z,1019.34
2018-12-30T19:40:54.666Z,1019.39
2018-12-30T19:41:54.654Z,1019.37
2018-12-30T19:42:54.682Z,1019.42
2018-12-30T19:43:54.630Z,1019.38
2018-12-30T19:44:54.619Z,1019.41
2018-12-30T19:45:54.607Z,1019.39
2018-12-30T19:46:54.597Z,1019.47
2018-12-30T19:47:54.584Z,1019.43
2018-12-30T19:48:54.595Z,1019.44
2018-12-30T19:49:54.561Z,1019.47
2018-12-30T19:50:54.549Z,1019.44
2018-12-30T19:51:54.540Z,1019.45
2018-12-30T19:52:54.526Z,1019.48
2018-12-30T19:53:54.533Z,1019.49
2018-12-30T19:54:54.504Z,1019.55
2018-12-30T19:55:54.491Z,1019.52
2018-12-30T19:56:54.479Z,1019.52
2018-12-30T19:57:54.469Z,1019.58
2018-12-30T19:58:54.474Z,1019.55
2018-12-30T19:59:54.446Z,1019.59
2018-12-30T20:00:54.434Z,1019.60
2018-12-30T20:01:54.423Z,1019.60
2018-12-30T20:02:54.410Z,1019.54
2018-12-30T20:03:55.415Z,1019.55
2018-12-30T20:04:54.388Z,1019.54
2018-12-30T20:05:54.377Z,1019.54
2018-12-30T20:06:54.364Z,1019.55
2018-12-30T20:07:54.352Z,1019.53
2018-12-30T20:08:54.346Z,1019.53
2018-12-30T20:09:54.348Z,1019.51
2018-12-30T20:10:54.318Z,1019.49
2018-12-30T20:11:54.307Z,1019.47
2018-12-30T20:12:54.298Z,1019.44
2018-12-30T20:13:54.285Z,1019.49
2018-12-30T20:14:54.291Z,1019.51
2018-12-30T20:15:54.260Z,1019.46
2018-12-30T20:16:54.248Z,1019.45
2018-12-30T20:17:54.237Z,1019.49
2018-12-30T20:18:54.231Z,1019.50
2018-12-30T20:19:54.233Z,1019.47
2018-12-30T20:20:54.205Z,1019.46
2018-12-30T20:21:54.190Z,1019.47
2018-12-30T20:22:54.183Z,1019.46
2018-12-30T20:23:54.168Z,1019.51
2018-12-30T20:24:54.178Z,1019.48
2018-12-30T20:25:54.144Z,1019.46
2018-12-30T20:26:54.133Z,1019.46
2018-12-30T20:27:54.137Z,1019.50
2018-12-30T20:28:54.110Z,1019.45
2018-12-30T20:29:54.116Z,1019.43
2018-12-30T20:30:54.085Z,1019.38
2018-12-30T20:31:54.077Z,1019.36
2018-12-30T20:32:54.063Z,1019.38
2018-12-30T20:33:54.052Z,1019.37
2018-12-30T20:34:54.062Z,1019.34
2018-12-30T20:35:54.027Z,1019.36
2018-12-30T20:36:54.018Z,1019.35
2018-12-30T20:37:54.005Z,1019.33
2018-12-30T20:38:53.993Z,1019.32
2018-12-30T20:39:53.985Z,1019.29
2018-12-30T20:40:53.991Z,1019.34
2018-12-30T20:41:53.966Z,1019.30
2018-12-30T20:42:53.947Z,1019.31
2018-12-30T20:43:53.936Z,1019.26
2018-12-30T20:44:53.923Z,1019.21
2018-12-30T20:45:53.931Z,1019.23
2018-12-30T20:46:53.902Z,1019.21
2018-12-30T20:47:53.890Z,1019.24
2018-12-30T20:48:53.880Z,1019.15
2018-12-30T20:49:53.874Z,1019.22
2018-12-30T20:50:53.874Z,1019.16
2018-12-30T20:51:53.847Z,1019.16
2018-12-30T20:52:53.844Z,1019.21
2018-12-30T22:44:25.346Z,1019.26
2018-12-30T22:45:25.317Z,1019.23
2018-12-30T22:46:25.305Z,1019.28
2018-12-30T22:47:25.311Z,1019.26
2018-12-30T22:48:25.282Z,1019.29
2018-12-30T22:49:25.271Z,1019.23
2018-12-30T22:50:25.261Z,1019.27
2018-12-30T22:51:25.249Z,1019.25
2018-12-30T22:52:25.257Z,1019.29
2018-12-30T22:53:25.223Z,1019.31
2018-12-30T22:54:25.211Z,1019.27
2018-12-30T22:55:25.199Z,1019.26
2018-12-30T22:56:25.188Z,1019.24
2018-12-30T22:57:25.176Z,1019.21
2018-12-30T22:58:25.184Z,1019.21
2018-12-30T22:59:25.153Z,1019.25
2018-12-30T23:00:25.141Z,1019.24
2018-12-30T23:01:25.131Z,1019.25
2018-12-30T23:02:25.121Z,1019.18
2018-12-30T23:03:25.130Z,1019.22
2018-12-30T23:04:25.093Z,1019.25
2018-12-30T23:05:25.083Z,1019.25
2018-12-30T23:06:25.071Z,1019.25
2018-12-30T23:07:25.061Z,1019.22
2018-12-30T23:08:25.072Z,1019.26
2018-12-30T23:09:25.047Z,1019.24
2018-12-30T23:10:25.025Z,1019.21
2018-12-30T23:11:25.014Z,1019.19
2018-12-30T23:12:25.001Z,1019.20
2018-12-30T23:13:24.989Z,1019.19
2018-12-30T23:14:25.001Z,1019.21
2018-12-30T23:15:24.967Z,1019.23
2018-12-30T23:16:24.959Z,1019.18
2018-12-30T23:17:24.948Z,1019.16
2018-12-30T23:18:24.934Z,1019.16
2018-12-30T23:19:24.940Z,1019.17
2018-12-30T23:20:24.910Z,1019.16
2018-12-30T23:21:24.902Z,1019.14
2018-12-30T23:22:24.885Z,1019.13
2018-12-30T23:23:24.875Z,1019.14
2018-12-30T23:24:24.880Z,1019.12
2018-12-30T23:25:24.852Z,1019.12
2018-12-30T23:26:24.851Z,1019.08
2018-12-30T23:27:24.832Z,1019.05
2018-12-30T23:28:24.816Z,1019.04
2018-12-30T23:29:24.831Z,1019.12
2018-12-30T23:30:24.794Z,1019.02
2018-12-30T23:31:24.782Z,1019.05
2018-12-30T23:32:24.769Z,1019.05
2018-12-30T23:33:24.761Z,1019.04
2018-12-30T23:34:24.750Z,1019.07
2018-12-30T23:35:24.754Z,1019.08
2018-12-30T23:36:24.723Z,1019.09
2018-12-30T23:37:24.713Z,1019.10
2018-12-30T23:38:24.704Z,1019.09
2018-12-30T23:39:24.688Z,1019.03
2018-12-30T23:40:24.696Z,1019.04
2018-12-30T23:41:24.667Z,1019.07
2018-12-30T23:42:24.654Z,1019.10
2018-12-30T23:43:24.647Z,1019.17
2018-12-30T23:44:24.632Z,1019.14
2018-12-30T23:45:24.660Z,1019.12
2018-12-30T23:46:24.610Z,1019.12
2018-12-30T23:47:24.599Z,1019.16
2018-12-30T23:48:24.588Z,1019.13
2018-12-30T23:49:24.580Z,1019.15
2018-12-30T23:50:24.566Z,1019.19
2018-12-30T23:51:24.568Z,1019.17
2018-12-30T23:52:24.542Z,1019.18
2018-12-30T23:53:24.525Z,1019.18
2018-12-30T23:54:24.514Z,1019.19
2018-12-30T23:55:24.502Z,1019.24
2018-12-30T23:56:24.510Z,1019.24
2018-12-30T23:57:24.478Z,1019.17
2018-12-30T23:58:24.476Z,1019.20
2018-12-30T23:59:24.459Z,1019.19
